Time;durP1;ratioP1;P1;durP2;ratioP2;P2;SDS_P1;SDS_P2;PMS_P1;PMS_P2;Temp;Humidity;BMP_temperature;BMP_pressure;BME280_temperature;BME280_humidity;BME280_pressure;Samples;Min_cycle;Max_cycle;Signal;HPM_P1;HPM_P2
2023/04/02 00:00:33;;;;;;;;;10.00;9.00;;;;;9.16;88.35;98816.34;5068752;28;45460;-86
2023/04/02 00:03:07;;;;;;;;;13.25;11.50;;;;;9.18;88.61;98817.13;5055081;28;45400;-86
2023/04/02 00:05:49;;;;;;;;;11.75;11.50;;;;;9.19;88.52;98824.13;5054380;28;45424;-87
2023/04/02 00:08:39;;;;;;;;;13.50;13.00;;;;;9.22;88.44;98831.00;5054832;28;46188;-87
2023/04/02 00:11:06;;;;;;;;;14.25;13.25;;;;;9.23;88.45;98830.94;5061317;28;45414;-87
2023/04/02 00:13:39;;;;;;;;;9.50;7.00;;;;;9.22;87.52;98834.50;5069006;28;45413;-87
2023/04/02 00:16:11;;;;;;;;;5.75;5.75;;;;;9.22;86.82;98831.84;5053306;28;45428;-87
2023/04/02 00:18:45;;;;;;;;;4.00;4.00;;;;;9.20;86.16;98833.72;5069880;28;47708;-87
2023/04/02 00:21:18;;;;;;;;;2.00;2.00;;;;;9.14;85.58;98825.19;5055012;28;45400;-87
2023/04/02 00:23:45;;;;;;;;;2.75;2.75;;;;;9.12;86.38;98830.50;5054423;28;45534;-85
2023/04/02 00:26:29;;;;;;;;;1.75;1.75;;;;;9.12;86.32;98832.28;5060570;28;45507;-85
2023/04/02 00:28:55;;;;;;;;;4.00;2.00;;;;;9.07;85.96;98838.56;5043215;28;45380;-86
2023/04/02 00:31:20;;;;;;;;;2.00;2.00;;;;;9.04;85.52;98828.19;5054785;28;45527;-87
2023/04/02 00:33:48;;;;;;;;;2.75;2.00;;;;;9.04;86.46;98829.97;5055006;28;45433;-88
2023/04/02 00:36:14;;;;;;;;;2.00;2.00;;;;;9.06;86.00;98826.34;5054480;28;45599;-89
2023/04/02 00:38:42;;;;;;;;;5.00;2.50;;;;;9.09;86.63;98831.47;5055504;28;46439;-87
2023/04/02 00:41:15;;;;;;;;;2.00;2.00;;;;;9.10;85.25;98841.09;5069260;28;45438;-89
2023/04/02 00:43:45;;;;;;;;;1.75;1.75;;;;;9.06;86.25;98842.13;5070931;28;45375;-89
2023/04/02 00:46:15;;;;;;;;;3.00;3.00;;;;;9.04;86.56;98848.38;5069905;28;45510;-89
2023/04/02 00:48:48;;;;;;;;;6.75;6.75;;;;;9.06;86.88;98844.75;5066872;28;48105;-89
2023/04/02 00:51:23;;;;;;;;;6.00;6.00;;;;;9.07;87.24;98835.09;5051550;28;45445;-89
2023/04/02 00:53:51;;;;;;;;;8.25;5.75;;;;;9.09;87.54;98855.16;5067450;28;45503;-89
2023/04/02 00:56:26;;;;;;;;;6.00;6.00;;;;;9.10;87.60;98848.13;5053131;28;45308;-89
2023/04/02 00:58:55;;;;;;;;;9.75;8.00;;;;;9.14;87.61;98857.63;5052759;28;48099;-88
2023/04/02 01:01:26;;;;;;;;;9.25;6.00;;;;;9.14;87.53;98854.97;5069010;28;45581;-89
2023/04/02 01:04:00;;;;;;;;;7.75;7.25;;;;;9.16;87.54;98852.31;5069200;28;45441;-89
2023/04/02 01:06:30;;;;;;;;;8.50;7.00;;;;;9.18;87.26;98855.72;5059027;28;45456;-89
2023/04/02 01:09:13;;;;;;;;;8.00;6.25;;;;;9.19;87.16;98850.41;5048333;28;46419;-89
2023/04/02 01:12:08;;;;;;;;;8.25;6.25;;;;;9.19;87.06;98849.56;5046941;28;45406;-89
2023/04/02 01:15:05;;;;;;;;;9.25;6.50;;;;;9.19;86.28;98860.06;5045252;28;45265;-89
2023/04/02 01:17:34;;;;;;;;;5.25;5.25;;;;;9.16;86.63;98855.78;5053215;28;45603;-87
2023/04/02 01:20:37;;;;;;;;;6.00;6.00;;;;;9.16;86.89;98862.81;5054437;28;45483;-88
2023/04/02 01:23:33;;;;;;;;;6.75;4.75;;;;;9.18;86.92;98861.00;5069296;28;45413;-87
2023/04/02 01:26:19;;;;;;;;;8.50;8.50;;;;;9.18;87.20;98867.09;5053634;28;45314;-86
2023/04/02 01:29:02;;;;;;;;;7.25;6.25;;;;;9.17;86.81;98865.38;5040906;28;45413;-87
2023/04/02 01:31:29;;;;;;;;;8.25;8.00;;;;;9.16;87.14;98866.31;5053318;28;45581;-86
2023/04/02 01:33:55;;;;;;;;;6.75;6.75;;;;;9.18;87.91;98874.13;5052593;28;45479;-86
2023/04/02 01:36:42;;;;;;;;;10.00;9.00;;;;;9.20;87.45;98870.53;5050511;28;45393;-86
2023/04/02 01:39:32;;;;;;;;;12.25;12.25;;;;;9.21;87.60;98874.03;5046486;28;45193;-87
2023/04/02 01:42:06;;;;;;;;;10.00;9.50;;;;;9.23;87.62;98875.66;5041137;28;46396;-88
2023/04/02 01:44:40;;;;;;;;;14.67;11.00;;;;;9.25;87.28;98867.72;5055573;28;45405;-88
2023/04/02 01:47:11;;;;;;;;;12.50;11.25;;;;;9.27;87.52;98863.25;5056445;28;45468;-88
2023/04/02 01:49:38;;;;;;;;;10.67;10.67;;;;;9.27;87.45;98863.25;5072079;28;45579;-88
2023/04/02 01:52:04;;;;;;;;;12.25;11.00;;;;;9.28;86.96;98864.97;5055481;28;45656;-88
2023/04/02 01:54:30;;;;;;;;;12.25;11.50;;;;;9.27;87.36;98864.09;5052477;28;45465;-88
2023/04/02 01:56:56;;;;;;;;;15.50;13.00;;;;;9.27;87.25;98868.50;5037368;28;45418;-88
2023/04/02 01:59:22;;;;;;;;;13.25;12.00;;;;;9.28;88.06;98871.09;5054004;28;45668;-87
2023/04/02 02:02:04;;;;;;;;;11.75;11.75;;;;;9.30;87.65;98871.88;5056708;28;46064;-87
2023/04/02 02:04:30;;;;;;;;;12.75;10.25;;;;;9.31;87.66;98873.59;5043107;28;45358;-87
2023/04/02 02:06:59;;;;;;;;;11.75;10.50;;;;;9.30;87.46;98877.16;5056469;28;45336;-88
2023/04/02 02:09:29;;;;;;;;;12.00;11.25;;;;;9.29;87.71;98883.31;5056417;28;45370;-88
2023/04/02 02:11:56;;;;;;;;;12.75;12.25;;;;;9.29;87.55;98877.19;5055064;28;47387;-87
2023/04/02 02:14:24;;;;;;;;;13.25;11.50;;;;;9.29;87.18;98875.44;5056782;28;45447;-87
2023/04/02 02:16:52;;;;;;;;;11.75;11.00;;;;;9.25;87.12;98881.72;5055690;28;45411;-87
2023/04/02 02:19:35;;;;;;;;;8.00;8.00;;;;;9.19;86.94;98871.44;5056596;28;45277;-83
2023/04/02 02:22:33;;;;;;;;;13.00;11.25;;;;;9.18;87.16;98871.50;5071599;28;47000;-88
2023/04/02 02:25:03;;;;;;;;;2.00;2.00;;;;;9.10;85.63;98875.28;5056240;28;45403;-86
2023/04/02 02:27:29;;;;;;;;;3.00;3.00;;;;;9.04;86.25;98872.03;5056313;28;45435;-86
2023/04/02 02:30:04;;;;;;;;;3.25;2.00;;;;;9.01;86.45;98874.78;5056014;28;45483;-86
2023/04/02 02:32:32;;;;;;;;;2.75;2.00;;;;;9.00;86.74;98873.06;5056362;28;47849;-86
2023/04/02 02:35:14;;;;;;;;;2.00;2.00;;;;;9.01;86.35;98877.41;5056503;28;45329;-87
2023/04/02 02:37:45;;;;;;;;;1.00;1.00;;;;;8.97;85.21;98887.19;5054890;28;45404;-87
2023/04/02 02:40:31;;;;;;;;;2.00;1.00;;;;;8.90;84.83;98875.16;5071440;28;45390;-86
2023/04/02 02:43:01;;;;;;;;;1.00;1.00;;;;;8.87;85.68;98874.44;5054442;28;45748;-86
2023/04/02 02:45:31;;;;;;;;;1.00;1.00;;;;;8.81;85.40;98878.16;5055010;28;45435;-86
2023/04/02 02:47:59;;;;;;;;;0.25;0.25;;;;;8.78;85.40;98873.00;5055286;28;45394;-86
2023/04/02 02:50:31;;;;;;;;;1.75;1.00;;;;;8.77;85.19;98880.94;5071371;28;45354;-87
2023/04/02 02:52:58;;;;;;;;;1.00;1.00;;;;;8.73;85.82;98881.03;5055587;28;46463;-88
2023/04/02 02:55:35;;;;;;;;;3.00;3.00;;;;;8.72;86.51;98888.97;5068650;28;45742;-87
2023/04/02 02:58:18;;;;;;;;;4.25;4.25;;;;;8.73;87.35;98899.44;5042619;28;45365;-88
2023/04/02 03:00:44;;;;;;;;;8.75;6.25;;;;;8.77;87.96;98897.56;5057468;28;45395;-87
2023/04/02 03:03:16;;;;;;;;;8.25;7.50;;;;;8.84;88.68;98901.69;5054685;28;47310;-87
2023/04/02 03:05:42;;;;;;;;;7.50;6.00;;;;;8.87;88.88;98901.59;5055797;28;45358;-87
2023/04/02 03:08:18;;;;;;;;;9.00;7.75;;;;;8.89;89.33;98910.25;5055848;28;45348;-88
2023/04/02 03:11:11;;;;;;;;;11.00;7.50;;;;;8.96;88.90;98914.38;5055895;28;45486;-88
2023/04/02 03:13:41;;;;;;;;;9.25;6.00;;;;;8.99;89.30;98908.16;5055542;28;45340;-88
2023/04/02 03:16:26;;;;;;;;;8.75;6.00;;;;;9.03;88.85;98915.03;5055839;28;45234;-87
2023/04/02 03:19:22;;;;;;;;;7.75;7.75;;;;;9.05;88.59;98908.75;5071449;28;45270;-86
2023/04/02 03:21:55;;;;;;;;;10.50;8.75;;;;;9.09;88.71;98906.88;5055553;28;45218;-87
2023/04/02 03:24:33;;;;;;;;;4.50;4.50;;;;;9.11;88.10;98912.94;5071388;28;45413;-88
2023/04/02 03:27:06;;;;;;;;;8.50;6.25;;;;;9.08;88.42;98905.16;5072873;28;45308;-87
2023/04/02 03:29:40;;;;;;;;;8.25;6.75;;;;;9.12;88.07;98911.19;5035122;28;45417;-87
2023/04/02 03:32:15;;;;;;;;;9.00;6.00;;;;;9.12;87.79;98908.53;5034912;28;45609;-86
2023/04/02 03:34:55;;;;;;;;;10.00;10.00;;;;;9.14;87.68;98914.63;5051466;28;46231;-86
2023/04/02 03:37:30;;;;;;;;;11.50;10.75;;;;;9.15;87.62;98917.19;5055479;28;45475;-86
2023/04/02 03:39:56;;;;;;;;;12.00;10.75;;;;;9.16;87.28;98916.28;5071902;28;45461;-87
2023/04/02 03:42:28;;;;;;;;;8.75;8.75;;;;;9.17;87.54;98920.63;5070112;28;45432;-87
2023/04/02 03:44:59;;;;;;;;;10.00;9.25;;;;;9.17;88.04;98923.25;5070050;28;47417;-88
2023/04/02 03:47:35;;;;;;;;;11.00;11.00;;;;;9.20;87.61;98931.03;5069783;28;45460;-88
2023/04/02 03:50:00;;;;;;;;;8.50;8.50;;;;;9.22;87.72;98929.19;5071226;28;45302;-88
2023/04/02 03:52:28;;;;;;;;;12.25;11.00;;;;;9.21;87.65;98931.88;5069400;28;45321;-88
2023/04/02 03:54:56;;;;;;;;;9.25;9.00;;;;;9.21;87.45;98930.13;5055587;28;45533;-87
2023/04/02 03:57:37;;;;;;;;;7.50;6.50;;;;;9.22;87.51;98931.81;5038199;28;45425;-86
2023/04/02 04:00:18;;;;;;;;;12.75;10.75;;;;;9.23;87.83;98933.53;5046506;28;45482;-87
2023/04/02 04:02:57;;;;;;;;;5.50;5.50;;;;;9.23;88.27;98932.66;5050590;28;45359;-87
2023/04/02 04:05:27;;;;;;;;;11.50;10.25;;;;;9.26;88.27;98938.66;5049911;28;45610;-86
2023/04/02 04:07:58;;;;;;;;;11.25;10.25;;;;;9.28;88.08;98936.84;5055282;28;45405;-87
2023/04/02 04:10:26;;;;;;;;;9.25;9.25;;;;;9.30;87.77;98942.06;5054414;28;45227;-87
2023/04/02 04:12:55;;;;;;;;;7.75;7.25;;;;;9.30;87.83;98945.53;5055358;28;45320;-87
2023/04/02 04:15:27;;;;;;;;;12.00;10.50;;;;;9.29;88.05;98937.69;5055028;28;45468;-87
2023/04/02 04:18:18;;;;;;;;;5.00;3.75;;;;;9.28;87.73;98936.84;5054993;28;45309;-86
2023/04/02 04:20:55;;;;;;;;;10.00;9.25;;;;;9.28;88.25;98930.72;5053851;28;45282;-86
2023/04/02 04:23:29;;;;;;;;;11.00;10.00;;;;;9.29;88.14;98929.81;5070537;28;45447;-87
2023/04/02 04:26:18;;;;;;;;;4.25;4.25;;;;;9.28;87.99;98934.22;5069788;28;47482;-88
2023/04/02 04:29:04;;;;;;;;;14.75;12.50;;;;;9.27;87.76;98935.13;5057204;28;45461;-88
2023/04/02 04:31:40;;;;;;;;;15.00;13.25;;;;;9.24;87.74;98937.00;5054967;28;45473;-88
2023/04/02 04:34:15;;;;;;;;;12.00;9.75;;;;;9.21;87.65;98935.38;5060806;28;45444;-89
2023/04/02 04:36:54;;;;;;;;;13.75;13.00;;;;;9.20;87.60;98941.56;5054370;28;46173;-89
2023/04/02 04:39:30;;;;;;;;;11.50;11.25;;;;;9.19;88.15;98938.97;5054764;28;45384;-87
2023/04/02 04:42:00;;;;;;;;;14.25;11.00;;;;;9.19;88.22;98936.34;5054963;28;45336;-87
2023/04/02 04:44:48;;;;;;;;;12.50;10.00;;;;;9.17;88.40;98948.69;5054818;28;45533;-88
2023/04/02 04:47:19;;;;;;;;;10.00;10.00;;;;;9.15;88.17;98948.75;5066855;28;46274;-87
2023/04/02 04:50:06;;;;;;;;;11.25;11.25;;;;;9.09;87.79;98946.34;5040031;28;45710;-88
2023/04/02 04:52:41;;;;;;;;;6.75;6.75;;;;;9.04;87.26;98956.19;5057927;28;45442;-89
2023/04/02 04:55:23;;;;;;;;;6.50;6.00;;;;;8.97;87.39;98949.41;5059394;28;45201;-88
2023/04/02 04:57:53;;;;;;;;;5.75;5.75;;;;;8.95;87.98;98943.34;5055289;28;46326;-87
2023/04/02 05:00:31;;;;;;;;;11.00;7.75;;;;;8.97;88.35;98949.41;5054532;28;45316;-86
2023/04/02 05:03:22;;;;;;;;;9.00;9.00;;;;;8.95;88.46;98946.84;5054193;28;45404;-86
2023/04/02 05:05:48;;;;;;;;;11.00;9.00;;;;;8.98;88.34;98949.38;5039935;28;45397;-85
2023/04/02 05:08:20;;;;;;;;;9.00;9.00;;;;;8.98;88.40;98952.00;5054575;28;45414;-84
2023/04/02 05:10:53;;;;;;;;;8.75;6.25;;;;;8.97;88.53;98952.91;5069834;28;45441;-85
2023/04/02 05:13:34;;;;;;;;;10.75;10.00;;;;;8.98;88.76;98959.03;5069839;28;45352;-88
2023/04/02 05:16:02;;;;;;;;;9.00;8.00;;;;;8.96;88.63;98958.22;5054471;28;45508;-87
2023/04/02 05:18:40;;;;;;;;;10.75;9.75;;;;;8.93;88.84;98960.94;5069289;28;47151;-88
2023/04/02 05:21:20;;;;;;;;;11.50;10.00;;;;;8.91;88.98;98968.03;5055214;28;45539;-86
2023/04/02 05:23:56;;;;;;;;;9.25;8.75;;;;;8.90;88.93;98968.94;5044695;28;45408;-87
2023/04/02 05:26:29;;;;;;;;;10.25;9.00;;;;;8.92;88.75;98977.63;5057271;28;45434;-88
2023/04/02 05:29:03;;;;;;;;;11.50;11.00;;;;;8.92;89.00;98970.59;5057164;28;45515;-87
2023/04/02 05:32:14;;;;;;;;;9.00;7.75;;;;;8.94;88.52;98970.56;5058707;28;45375;-87
2023/04/02 05:34:41;;;;;;;;;10.25;9.00;;;;;8.91;88.52;98975.91;5054124;28;45560;-87
2023/04/02 05:37:17;;;;;;;;;10.25;8.25;;;;;8.90;88.58;98974.19;5051599;28;45460;-87
2023/04/02 05:39:44;;;;;;;;;8.00;6.50;;;;;8.91;88.58;98971.53;5055610;28;45327;-87
2023/04/02 05:42:24;;;;;;;;;10.50;9.50;;;;;8.93;87.95;98979.34;5073722;28;45361;-88
2023/04/02 05:45:14;;;;;;;;;10.50;10.25;;;;;8.95;88.53;98980.16;5059029;28;45396;-86
2023/04/02 05:47:43;;;;;;;;;7.75;6.25;;;;;8.95;88.38;98988.06;5056121;28;45350;-86
2023/04/02 05:50:11;;;;;;;;;9.25;9.25;;;;;8.96;88.21;98984.50;5055465;28;46406;-78
2023/04/02 05:52:47;;;;;;;;;12.50;11.00;;;;;8.97;88.41;98984.47;5054933;28;45495;-85
2023/04/02 05:55:15;;;;;;;;;12.00;10.75;;;;;8.98;87.95;98990.56;5046097;28;45476;-84
2023/04/02 05:57:48;;;;;;;;;10.75;9.25;;;;;8.98;88.02;98990.56;5049992;28;45452;-84
2023/04/02 06:00:42;;;;;;;;;20.00;13.00;;;;;8.98;87.94;98996.69;5065052;28;47062;-85
2023/04/02 06:03:44;;;;;;;;;14.25;13.00;;;;;9.01;87.57;98993.97;5055930;28;45384;-84
2023/04/02 06:06:38;;;;;;;;;16.00;13.25;;;;;9.07;88.02;98995.50;5027925;28;45392;-83
2023/04/02 06:09:12;;;;;;;;;11.00;9.00;;;;;9.10;87.21;98993.63;5056730;28;45407;-83
2023/04/02 06:11:50;;;;;;;;;19.67;16.33;;;;;9.17;87.08;98990.78;5056744;28;45427;-84
2023/04/02 06:14:16;;;;;;;;;14.00;11.25;;;;;9.23;86.93;98994.03;5044812;28;45444;-84
2023/04/02 06:16:44;;;;;;;;;14.00;13.25;;;;;9.31;86.46;98999.00;5056790;28;45439;-84
2023/04/02 06:19:25;;;;;;;;;16.33;16.33;;;;;9.39;86.67;98995.16;5056769;28;45242;-84
2023/04/02 06:21:52;;;;;;;;;13.75;13.25;;;;;9.49;86.35;98994.84;5070929;28;47563;-84
2023/04/02 06:24:23;;;;;;;;;13.00;13.00;;;;;9.57;85.85;98998.03;5056393;28;45373;-84
2023/04/02 06:26:56;;;;;;;;;15.25;13.25;;;;;9.67;85.80;98996.78;5071665;28;45458;-83
2023/04/02 06:29:43;;;;;;;;;13.00;12.00;;;;;9.83;85.56;99004.94;5056464;28;45473;-84
2023/04/02 06:32:10;;;;;;;;;14.75;13.75;;;;;9.94;85.02;99008.00;5062106;28;45309;-84
2023/04/02 06:34:39;;;;;;;;;12.00;10.50;;;;;10.03;84.58;99013.78;5055667;28;45451;-83
2023/04/02 06:37:18;;;;;;;;;14.00;11.00;;;;;10.13;83.70;99009.84;5055842;28;45407;-83
2023/04/02 06:39:44;;;;;;;;;10.00;9.75;;;;;10.24;83.41;99013.84;5055941;28;45533;-84
2023/04/02 06:42:09;;;;;;;;;7.75;7.25;;;;;10.29;82.49;99017.16;5055848;28;46070;-84
2023/04/02 06:44:36;;;;;;;;;7.25;7.00;;;;;10.31;82.27;99010.91;5057298;28;45350;-81
2023/04/02 06:47:09;;;;;;;;;11.00;10.00;;;;;10.32;82.45;99020.53;5056057;28;45409;-83
2023/04/02 06:49:40;;;;;;;;;10.75;9.50;;;;;10.38;81.71;99011.53;5055835;28;45420;-83
2023/04/02 06:52:32;;;;;;;;;5.25;5.25;;;;;10.45;81.61;99019.09;5055855;28;45732;-83
2023/04/02 06:54:58;;;;;;;;;7.50;7.00;;;;;10.52;80.99;99022.34;5037117;28;45806;-64
2023/04/02 06:57:23;;;;;;;;;10.00;10.00;;;;;10.60;81.28;99022.88;5052507;28;45392;-59
2023/04/02 06:59:49;;;;;;;;;5.75;5.75;;;;;10.74;80.23;99022.28;5053642;28;45592;-64
2023/04/02 07:02:35;;;;;;;;;7.00;6.00;;;;;10.82;80.05;99025.47;5068140;28;46958;-65
2023/04/02 07:05:05;;;;;;;;;10.00;6.50;;;;;10.90;80.05;99030.41;5053390;28;45769;-65
2023/04/02 07:07:30;;;;;;;;;5.00;5.00;;;;;10.99;79.61;99030.88;5053695;28;45463;-65
2023/04/02 07:09:56;;;;;;;;;6.00;6.00;;;;;11.11;79.46;99037.41;5046454;28;45507;-65
2023/04/02 07:12:23;;;;;;;;;7.25;7.00;;;;;11.21;78.71;99035.25;5034287;28;45488;-65
2023/04/02 07:14:49;;;;;;;;;4.25;3.75;;;;;11.24;77.97;99033.28;5042814;28;45467;-65
2023/04/02 07:17:16;;;;;;;;;7.00;7.00;;;;;11.27;78.20;99041.09;5039206;28;45411;-65
2023/04/02 07:19:44;;;;;;;;;8.50;7.00;;;;;11.27;76.96;99041.09;5054003;28;45442;-64
2023/04/02 07:22:10;;;;;;;;;7.25;6.75;;;;;11.25;78.24;99050.84;5053597;28;46540;-64
2023/04/02 07:24:35;;;;;;;;;13.25;7.75;;;;;11.28;78.21;99050.72;5053693;28;45890;-64
2023/04/02 07:27:01;;;;;;;;;9.00;8.50;;;;;11.32;77.87;99049.66;5053421;28;45412;-62
2023/04/02 07:29:26;;;;;;;;;6.75;6.00;;;;;11.34;77.53;99050.47;5053145;28;45330;-64
2023/04/02 07:31:52;;;;;;;;;12.25;9.50;;;;;11.40;77.28;99054.59;5053170;28;45549;-64
2023/04/02 07:34:18;;;;;;;;;10.00;7.25;;;;;11.45;77.46;99056.09;5052904;28;45427;-64
2023/04/02 07:36:43;;;;;;;;;6.75;6.75;;;;;11.48;77.20;99060.41;5050905;28;45485;-64
2023/04/02 07:39:09;;;;;;;;;8.00;7.75;;;;;11.50;77.40;99055.91;5053015;28;45366;-65
2023/04/02 07:41:56;;;;;;;;;8.00;7.00;;;;;11.54;76.85;99049.56;5052837;28;45373;-64
2023/04/02 07:44:22;;;;;;;;;5.00;5.00;;;;;11.57;76.67;99059.13;5052657;28;45606;-64
2023/04/02 07:46:47;;;;;;;;;5.25;5.25;;;;;11.63;76.58;99062.34;5052753;28;45435;-65
2023/04/02 07:49:13;;;;;;;;;12.00;8.75;;;;;11.67;76.67;99053.38;5052486;28;45436;-65
2023/04/02 07:51:38;;;;;;;;;7.00;6.50;;;;;11.75;76.74;99066.19;5052090;28;46382;-65
2023/04/02 07:54:03;;;;;;;;;7.75;6.00;;;;;11.77;75.84;99065.25;5068401;28;45461;-65
2023/04/02 07:56:30;;;;;;;;;11.00;8.25;;;;;11.81;75.89;99066.81;5053059;28;45527;-64
2023/04/02 07:58:56;;;;;;;;;9.00;8.00;;;;;11.89;75.88;99079.69;5055152;28;45421;-64
2023/04/02 08:01:24;;;;;;;;;9.00;7.25;;;;;11.93;74.97;99068.03;5041700;28;46457;-64
2023/04/02 08:03:50;;;;;;;;;7.25;6.75;;;;;11.95;74.71;99079.38;5053303;28;45362;-65
2023/04/02 08:06:16;;;;;;;;;7.25;7.25;;;;;11.99;74.49;99070.41;5052889;28;45584;-63
2023/04/02 08:08:41;;;;;;;;;9.00;6.75;;;;;12.03;74.12;99077.25;5053302;28;45337;-60
2023/04/02 08:11:08;;;;;;;;;5.00;5.00;;;;;12.10;73.33;99091.88;5053249;28;46593;-63
2023/04/02 08:13:33;;;;;;;;;5.80;5.60;;;;;12.10;72.75;99081.31;5052361;28;45514;-63
2023/04/02 08:16:00;;;;;;;;;7.00;6.00;;;;;12.08;72.63;99087.59;5043534;28;45404;-63
2023/04/02 08:18:26;;;;;;;;;6.75;6.75;;;;;11.96;71.24;99090.81;5048385;28;45426;-65
2023/04/02 08:20:52;;;;;;;;;5.50;5.00;;;;;11.88;72.04;99092.03;5052671;28;45442;-64
2023/04/02 08:23:18;;;;;;;;;3.60;3.60;;;;;11.86;72.82;99085.97;5052633;28;45471;-64
2023/04/02 08:25:45;;;;;;;;;2.00;1.75;;;;;11.78;70.42;99095.16;5051732;28;45361;-64
2023/04/02 08:28:10;;;;;;;;;3.00;3.00;;;;;11.59;69.12;99118.00;5046321;28;45501;-64
2023/04/02 08:30:36;;;;;;;;;2.00;2.00;;;;;11.43;69.70;99094.06;5052753;28;46375;-64
2023/04/02 08:33:02;;;;;;;;;5.00;5.00;;;;;11.35;71.52;99096.19;5052891;28;45488;-64
2023/04/02 08:35:27;;;;;;;;;5.00;4.75;;;;;11.30;70.45;99100.78;5052344;28;45506;-64
2023/04/02 08:37:53;;;;;;;;;3.00;3.00;;;;;11.23;68.47;99108.09;5052676;28;45369;-64
2023/04/02 08:40:31;;;;;;;;;1.75;1.50;;;;;11.15;69.85;99115.50;5052611;28;46332;-65
2023/04/02 08:42:57;;;;;;;;;1.60;1.60;;;;;11.08;68.89;99106.13;5052587;28;45410;-62
2023/04/02 08:45:22;;;;;;;;;1.00;1.00;;;;;11.02;68.85;99117.81;5052412;28;45380;-64
2023/04/02 08:47:50;;;;;;;;;1.50;1.50;;;;;10.96;68.93;99118.06;5052646;28;45479;-63
2023/04/02 08:50:36;;;;;;;;;1.75;1.75;;;;;10.93;69.04;99133.16;5052274;28;45427;-64
2023/04/02 08:53:05;;;;;;;;;3.25;2.00;;;;;10.91;69.88;99127.94;5052108;28;45503;-63
2023/04/02 08:55:41;;;;;;;;;1.00;1.00;;;;;10.91;69.82;99129.72;5052187;28;45431;-66
2023/04/02 08:58:42;;;;;;;;;1.00;1.00;;;;;10.91;69.87;99138.47;5059324;28;45428;-66
2023/04/02 09:01:33;;;;;;;;;1.00;1.00;;;;;10.91;70.22;99130.56;5055262;28;46272;-65
2023/04/02 09:04:02;;;;;;;;;1.20;1.20;;;;;10.92;70.42;99128.78;5036769;28;45393;-65
2023/04/02 09:06:28;;;;;;;;;1.75;1.75;;;;;10.97;70.03;99132.97;5033931;28;45602;-65
2023/04/02 09:08:55;;;;;;;;;2.00;1.00;;;;;11.00;70.02;99126.72;5034095;28;45711;-65
2023/04/02 09:11:38;;;;;;;;;1.00;1.00;;;;;11.00;69.02;99134.63;5033819;28;46439;-65
2023/04/02 09:14:14;;;;;;;;;1.80;1.00;;;;;10.99;70.18;99148.72;5034109;28;45508;-65
2023/04/02 09:16:45;;;;;;;;;2.00;2.00;;;;;10.95;69.72;99139.22;5039217;28;45438;-65
2023/04/02 09:19:39;;;;;;;;;1.00;1.00;;;;;10.95;69.89;99140.09;5055230;28;45463;-65
2023/04/02 09:22:05;;;;;;;;;0.50;0.50;;;;;10.95;69.58;99150.63;5050530;28;47122;-65
2023/04/02 09:24:31;;;;;;;;;1.25;1.25;;;;;10.98;69.45;99133.81;5055588;28;45737;-66
2023/04/02 09:26:57;;;;;;;;;1.75;1.75;;;;;10.98;70.40;99131.19;5055213;28;45532;-65
2023/04/02 09:29:41;;;;;;;;;2.25;1.25;;;;;10.98;69.05;99136.47;5054744;28;45402;-65
2023/04/02 09:32:26;;;;;;;;;1.50;1.50;;;;;11.00;69.88;99140.75;5054416;28;45443;-65
2023/04/02 09:35:27;;;;;;;;;1.00;1.00;;;;;10.98;69.84;99145.25;5054835;28;45387;-65
2023/04/02 09:38:18;;;;;;;;;0.75;0.00;;;;;11.02;69.96;99153.88;5049706;28;45577;-65
2023/04/02 09:40:57;;;;;;;;;1.00;1.00;;;;;11.05;69.26;99145.84;5054814;28;45453;-65
2023/04/02 09:43:27;;;;;;;;;1.00;1.00;;;;;11.08;68.51;99132.50;5055010;28;46384;-66
2023/04/02 09:46:22;;;;;;;;;0.00;0.00;;;;;11.02;68.93;99138.91;5054743;28;45491;-65
2023/04/02 09:48:53;;;;;;;;;1.00;1.00;;;;;10.99;68.89;99151.38;5053798;28;45447;-66
2023/04/02 09:51:27;;;;;;;;;0.00;0.00;;;;;11.01;68.23;99155.66;5054295;28;45529;-65
2023/04/02 09:54:02;;;;;;;;;0.20;0.00;;;;;11.04;68.65;99176.66;5070134;28;47371;-65
2023/04/02 09:56:32;;;;;;;;;2.00;0.40;;;;;11.08;68.32;99132.50;5054996;28;45392;-65
2023/04/02 09:59:20;;;;;;;;;2.00;0.00;;;;;11.14;68.26;99129.63;5056834;28;45472;-66
2023/04/02 10:01:52;;;;;;;;;1.00;0.00;;;;;11.18;68.21;99141.78;5067082;28;46164;-65
2023/04/02 10:04:43;;;;;;;;;0.00;0.00;;;;;11.24;68.43;99148.53;5054119;28;46271;-65
2023/04/02 10:07:28;;;;;;;;;1.00;1.00;;;;;11.26;67.34;99152.84;5054959;28;45384;-65
2023/04/02 10:09:58;;;;;;;;;0.00;0.00;;;;;11.28;67.73;99144.88;5054630;28;45435;-66
2023/04/02 10:12:26;;;;;;;;;0.00;0.00;;;;;11.23;68.43;99152.13;5054612;28;45389;-65
2023/04/02 10:14:53;;;;;;;;;0.00;0.00;;;;;11.25;68.63;99193.34;5054240;28;46299;-65
2023/04/02 10:17:26;;;;;;;;;0.00;0.00;;;;;11.21;68.54;99168.03;5041025;28;45345;-65
2023/04/02 10:20:05;;;;;;;;;0.50;0.00;;;;;11.19;69.14;99148.75;5054145;28;45493;-65
2023/04/02 10:22:31;;;;;;;;;0.00;0.00;;;;;11.25;67.81;99187.22;5069746;28;45530;-64
2023/04/02 10:24:58;;;;;;;;;0.00;0.00;;;;;11.28;68.34;99152.78;5053780;28;45417;-65
2023/04/02 10:27:36;;;;;;;;;0.00;0.00;;;;;11.30;68.77;99191.38;5053773;28;45462;-65
2023/04/02 10:30:26;;;;;;;;;0.00;0.00;;;;;11.34;68.23;99186.84;5053611;28;45442;-65
2023/04/02 10:32:59;;;;;;;;;0.00;0.00;;;;;11.37;67.50;99173.53;5054327;28;45413;-65
2023/04/02 10:35:46;;;;;;;;;0.00;0.00;;;;;11.43;67.26;99147.72;5053224;28;46280;-65
2023/04/02 10:38:37;;;;;;;;;0.00;0.00;;;;;11.46;66.00;99176.63;5053689;28;45613;-64
2023/04/02 10:41:21;;;;;;;;;0.00;0.00;;;;;11.47;65.94;99186.25;5054265;28;45580;-65
2023/04/02 10:44:14;;;;;;;;;0.00;0.00;;;;;11.48;65.03;99171.28;5054179;28;45542;-64
2023/04/02 10:47:01;;;;;;;;;0.00;0.00;;;;;11.54;64.65;99187.72;5053649;28;45451;-64
2023/04/02 10:49:46;;;;;;;;;0.00;0.00;;;;;11.67;61.36;99181.91;5053684;28;45546;-64
2023/04/02 10:52:20;;;;;;;;;0.00;0.00;;;;;11.67;64.13;99168.69;5053310;28;45524;-64
2023/04/02 10:54:50;;;;;;;;;0.00;0.00;;;;;11.71;64.11;99162.38;5054357;28;45447;-64
2023/04/02 10:57:15;;;;;;;;;0.00;0.00;;;;;11.67;64.69;99159.00;5072060;27;46954;-64
2023/04/02 10:59:57;;;;;;;;;0.00;0.00;;;;;11.66;65.34;99149.34;5053693;28;45352;-64
2023/04/02 11:02:33;;;;;;;;;0.00;0.00;;;;;11.68;66.30;99171.28;5053661;28;45437;-64
2023/04/02 11:05:05;;;;;;;;;0.00;0.00;;;;;11.65;68.13;99155.56;5053864;28;45375;-64
2023/04/02 11:07:40;;;;;;;;;1.40;0.20;;;;;11.60;69.32;99186.56;5053725;28;45467;-65
2023/04/02 11:10:06;;;;;;;;;0.00;0.00;;;;;11.55;68.80;99175.38;5053152;28;45448;-65
2023/04/02 11:12:45;;;;;;;;;0.00;0.00;;;;;11.50;69.89;99170.28;5053791;28;45534;-64
2023/04/02 11:15:16;;;;;;;;;0.00;0.00;;;;;11.48;70.51;99185.34;5053699;28;45463;-64
2023/04/02 11:17:43;;;;;;;;;0.00;0.00;;;;;11.46;69.72;99181.91;5043450;28;45449;-64
2023/04/02 11:20:46;;;;;;;;;0.00;0.00;;;;;11.41;69.08;99193.56;5032268;28;45376;-64
2023/04/02 11:23:14;;;;;;;;;0.00;0.00;;;;;11.38;70.02;99164.69;5033124;28;45608;-64
2023/04/02 11:25:41;;;;;;;;;0.00;0.00;;;;;11.36;70.58;99172.66;5033147;28;45457;-64
2023/04/02 11:28:28;;;;;;;;;0.00;0.00;;;;;11.36;71.14;99182.38;5032916;28;46506;-64
2023/04/02 11:30:55;;;;;;;;;0.60;0.00;;;;;11.36;70.61;99175.31;5031852;28;45411;-64
2023/04/02 11:33:29;;;;;;;;;0.00;0.00;;;;;11.40;70.31;99166.31;5033477;28;45496;-63
2023/04/02 11:35:55;;;;;;;;;0.00;0.00;;;;;11.46;69.98;99187.19;5033061;28;45564;-64
2023/04/02 11:38:24;;;;;;;;;0.00;0.00;;;;;11.46;70.39;99195.09;5048552;28;46261;-64
2023/04/02 11:40:56;;;;;;;;;0.00;0.00;;;;;11.44;70.77;99194.31;5033359;28;45384;-64
2023/04/02 11:43:37;;;;;;;;;1.00;0.00;;;;;11.46;69.75;99220.63;5033554;28;45502;-64
2023/04/02 11:46:05;;;;;;;;;0.00;0.00;;;;;11.38;70.16;99199.84;5032837;28;45392;-64
2023/04/02 11:48:35;;;;;;;;;0.00;0.00;;;;;11.36;69.68;99195.56;5033020;28;45575;-64
2023/04/02 11:51:34;;;;;;;;;0.00;0.00;;;;;11.37;69.01;99211.34;5032163;28;45358;-64
2023/04/02 11:54:00;;;;;;;;;0.00;0.00;;;;;11.31;69.86;99214.22;5032930;28;45545;-64
2023/04/02 11:56:31;;;;;;;;;0.00;0.00;;;;;11.24;70.24;99214.53;5033068;28;45432;-64
2023/04/02 11:59:35;;;;;;;;;0.00;0.00;;;;;11.21;70.30;99196.22;5053592;28;46408;-64
2023/04/02 12:02:07;;;;;;;;;1.00;0.00;;;;;11.24;70.58;99191.63;5052810;28;45429;-64
2023/04/02 12:04:37;;;;;;;;;0.00;0.00;;;;;11.30;70.77;99199.31;5052824;28;45436;-64
2023/04/02 12:07:45;;;;;;;;;0.00;0.00;;;;;11.39;69.62;99192.81;5068163;28;45698;-64